Time;durP1;ratioP1;P1;durP2;ratioP2;P2;SDS_P1;SDS_P2;PMS_P1;PMS_P2;Temp;Humidity;BMP_temperature;BMP_pressure;BME280_temperature;BME280_humidity;BME280_pressure;Samples;Min_cycle;Max_cycle;Signal;HPM_P1;HPM_P2
2022/01/06 00:01:55;;;;;;;1.43;1.33;;;5.40;1.00;;;;;;5063950;28;20503;-78
2022/01/06 00:04:21;;;;;;;1.80;1.37;;;5.30;1.00;;;;;;5057007;28;20542;-78
2022/01/06 00:06:47;;;;;;;4.73;1.43;;;5.40;1.00;;;;;;5064563;28;20203;-78
2022/01/06 00:09:16;;;;;;;1.30;1.00;;;5.40;1.00;;;;;;5065358;28;20436;-78
2022/01/06 00:11:43;;;;;;;8.60;1.47;;;5.40;1.00;;;;;;5072483;28;20649;-78
2022/01/06 00:14:16;;;;;;;2.83;1.67;;;6.50;1.00;;;;;;5058761;28;20452;-78
2022/01/06 00:17:04;;;;;;;1.23;1.10;;;;;;;;;;5070554;28;20763;-78
2022/01/06 00:24:59;;;;;;;2.80;1.67;;;5.60;1.00;;;;;;5067390;28;20408;-78
2022/01/06 00:27:24;;;;;;;3.33;1.37;;;5.50;1.00;;;;;;5056376;28;20521;-78
2022/01/06 00:29:50;;;;;;;0.93;0.90;;;5.60;1.00;;;;;;5066885;28;20179;-78
2022/01/06 00:32:15;;;;;;;6.03;1.07;;;5.60;1.00;;;;;;5063987;28;20261;-78
2022/01/06 00:34:41;;;;;;;1.20;1.10;;;;;;;;;;5067337;28;20249;-78
2022/01/06 00:37:08;;;;;;;1.40;1.13;;;5.60;1.00;;;;;;5074279;28;20187;-78
2022/01/06 00:39:38;;;;;;;2.77;1.27;;;5.70;1.00;;;;;;5053280;28;20426;-78
2022/01/06 00:42:04;;;;;;;1.23;1.05;;;5.60;1.00;;;;;;5064010;28;20845;-78
2022/01/06 00:44:30;;;;;;;0.90;0.90;;;;;;;;;;5064900;28;20219;-78
2022/01/06 00:46:56;;;;;;;1.10;1.10;;;;;;;;;;5065349;28;20433;-79
2022/01/06 00:49:22;;;;;;;1.50;1.40;;;5.60;1.00;;;;;;5057375;28;20968;-79
2022/01/06 00:51:48;;;;;;;2.50;1.00;;;;;;;;;;5072447;28;20417;-79
2022/01/06 00:54:14;;;;;;;1.30;1.10;;;5.50;1.00;;;;;;5057019;28;20264;-79
2022/01/06 00:56:40;;;;;;;1.10;1.10;;;5.60;1.00;;;;;;5053328;28;20929;-79
2022/01/06 00:59:06;;;;;;;9.37;1.10;;;;;;;;;;5062270;28;20421;-79
2022/01/06 01:01:35;;;;;;;2.30;1.00;;;;;;;;;;5064062;28;20186;-79
2022/01/06 01:04:01;;;;;;;5.50;0.97;;;;;;;;;;5075465;28;20416;-78
2022/01/06 01:06:27;;;;;;;1.00;0.90;;;;;;;;;;5060400;28;20448;-78
2022/01/06 01:08:53;;;;;;;1.77;1.10;;;;;;;;;;5066262;28;20433;-78
2022/01/06 01:11:19;;;;;;;2.20;1.10;;;;;;;;;;5065912;28;20425;-78
2022/01/06 01:13:56;;;;;;;1.37;1.20;;;;;;;;;;5075278;28;20467;-78
2022/01/06 01:16:31;;;;;;;1.30;1.00;;;5.50;1.00;;;;;;5070972;28;20421;-78
2022/01/06 01:18:58;;;;;;;1.47;0.93;;;5.50;1.00;;;;;;5058096;28;20428;-79
2022/01/06 01:21:28;;;;;;;4.10;1.10;;;5.50;1.00;;;;;;5066519;28;20922;-79
2022/01/06 01:24:00;;;;;;;1.20;0.80;;;5.40;1.00;;;;;;5074620;28;20435;-79
2022/01/06 01:26:28;;;;;;;0.70;0.70;;;5.30;1.00;;;;;;5052706;28;20792;-79
2022/01/06 01:28:53;;;;;;;1.37;1.03;;;5.30;1.00;;;;;;5059098;28;20437;-79
2022/01/06 01:31:25;;;;;;;0.90;0.90;;;5.30;1.00;;;;;;5063346;28;20438;-79
2022/01/06 01:33:56;;;;;;;1.80;0.87;;;5.30;1.00;;;;;;5053369;28;20199;-79
2022/01/06 01:36:26;;;;;;;1.53;1.03;;;5.20;1.00;;;;;;5070044;28;20472;-79
2022/01/06 01:38:53;;;;;;;1.90;1.07;;;5.20;1.00;;;;;;5067177;28;20430;-79
2022/01/06 01:41:19;;;;;;;1.07;0.97;;;5.10;1.00;;;;;;5070780;28;20421;-79
2022/01/06 01:43:48;;;;;;;1.20;0.90;;;5.10;1.00;;;;;;5070803;28;20840;-79
2022/01/06 01:46:17;;;;;;;1.93;1.50;;;5.10;1.00;;;;;;5066798;28;20521;-79
2022/01/06 01:48:58;;;;;;;1.40;1.05;;;5.00;1.00;;;;;;5070673;28;20836;-79
2022/01/06 01:51:24;;;;;;;2.47;1.40;;;;;;;;;;5060547;28;20649;-79
2022/01/06 01:53:50;;;;;;;1.40;1.27;;;;;;;;;;5066306;28;20448;-79
2022/01/06 01:56:16;;;;;;;2.33;0.90;;;;;;;;;;5079870;28;20533;-79
2022/01/06 01:58:42;;;;;;;1.27;0.90;;;;;;;;;;5063210;28;20422;-79
2022/01/06 02:01:08;;;;;;;1.47;1.20;;;;;;;;;;5068871;28;20417;-79
2022/01/06 02:03:34;;;;;;;2.50;0.83;;;;;;;;;;5073393;28;20432;-78
2022/01/06 02:06:00;;;;;;;1.53;1.10;;;4.70;1.00;;;;;;5057667;28;20425;-78
2022/01/06 02:08:26;;;;;;;3.20;1.00;;;;;;;;;;5074063;28;20420;-78
2022/01/06 02:10:52;;;;;;;1.60;1.03;;;;;;;;;;5069824;28;20195;-78
2022/01/06 02:13:18;;;;;;;3.60;1.13;;;4.80;1.00;;;;;;5089694;28;20904;-78
2022/01/06 02:15:43;;;;;;;4.83;1.10;;;4.80;1.00;;;;;;5071311;28;20458;-78
2022/01/06 02:18:09;;;;;;;2.80;1.30;;;;;;;;;;5064263;28;20214;-80
2022/01/06 02:20:35;;;;;;;1.53;0.80;;;;;;;;;;5062695;28;20182;-79
2022/01/06 02:23:01;;;;;;;2.57;1.40;;;;;;;;;;5071527;28;20837;-79
2022/01/06 02:25:32;;;;;;;0.87;0.70;;;5.10;1.00;;;;;;5060685;28;20425;-79
2022/01/06 02:28:00;;;;;;;1.10;1.00;;;;;;;;;;5055840;28;20429;-79
2022/01/06 02:30:27;;;;;;;2.67;1.23;;;;;;;;;;5061471;28;20460;-79
2022/01/06 02:32:54;;;;;;;3.60;1.33;;;5.10;1.00;;;;;;5062830;28;20460;-78
2022/01/06 02:35:22;;;;;;;1.80;1.00;;;5.10;1.00;;;;;;5040705;28;20552;-78
2022/01/06 02:37:48;;;;;;;4.53;1.60;;;5.20;1.00;;;;;;5057071;28;20828;-78
2022/01/06 02:40:17;;;;;;;2.63;1.37;;;5.20;1.00;;;;;;5066451;28;20429;-78
2022/01/06 02:42:48;;;;;;;3.60;1.27;;;5.20;1.00;;;;;;5067850;28;20467;-78
2022/01/06 02:45:14;;;;;;;2.93;1.43;;;;;;;;;;5072599;28;20413;-78
2022/01/06 02:47:46;;;;;;;1.50;1.17;;;5.30;1.00;;;;;;5068455;28;20505;-78
2022/01/06 02:50:13;;;;;;;9.80;1.73;;;5.20;1.00;;;;;;5066195;28;20560;-79
2022/01/06 02:52:39;;;;;;;1.13;0.90;;;;;;;;;;5067995;28;20772;-79
2022/01/06 02:55:12;;;;;;;2.27;1.70;;;5.20;1.00;;;;;;5059735;28;20478;-79
2022/01/06 02:57:38;;;;;;;0.80;0.80;;;5.20;1.00;;;;;;5066964;28;20478;-79
2022/01/06 03:00:06;;;;;;;3.43;1.10;;;5.20;1.00;;;;;;5066279;28;20917;-79
2022/01/06 03:02:31;;;;;;;3.63;1.40;;;5.10;1.00;;;;;;5061227;28;20425;-79
2022/01/06 03:04:57;;;;;;;1.80;1.30;;;5.10;1.00;;;;;;5072457;28;20769;-79
2022/01/06 03:07:22;;;;;;;7.73;1.70;;;5.10;1.00;;;;;;5061351;28;20195;-79
2022/01/06 03:09:54;;;;;;;10.77;1.50;;;;;;;;;;5072087;28;20211;-79
2022/01/06 03:12:28;;;;;;;5.53;1.53;;;;;;;;;;5069012;28;20194;-79
2022/01/06 03:14:54;;;;;;;1.20;1.10;;;5.20;1.00;;;;;;5070833;28;20462;-79
2022/01/06 03:17:20;;;;;;;4.03;1.20;;;5.30;1.00;;;;;;5068153;28;20421;-79
2022/01/06 03:19:46;;;;;;;6.10;1.30;;;;;;;;;;5071387;28;20939;-78
2022/01/06 03:22:13;;;;;;;11.53;2.03;;;;;;;;;;5057838;28;20191;-78
2022/01/06 03:24:39;;;;;;;3.00;1.57;;;;;;;;;;5061167;28;20416;-78
2022/01/06 03:27:05;;;;;;;9.13;1.47;;;;;;;;;;5063161;28;20413;-78
2022/01/06 03:29:31;;;;;;;2.17;1.33;;;;;;;;;;5071768;28;20772;-78
2022/01/06 03:31:58;;;;;;;9.30;1.80;;;5.30;1.00;;;;;;5061566;28;20456;-79
2022/01/06 03:34:24;;;;;;;1.63;1.33;;;;;;;;;;5060571;28;20468;-79
2022/01/06 03:36:50;;;;;;;1.60;1.40;;;;;;;;;;5072130;28;20520;-79
2022/01/06 03:39:16;;;;;;;7.03;2.07;;;;;;;;;;5071811;28;20939;-79
2022/01/06 03:41:42;;;;;;;7.23;1.50;;;5.30;1.00;;;;;;5060218;28;20495;-79
2022/01/06 03:44:08;;;;;;;1.63;1.40;;;5.20;1.00;;;;;;5065210;28;20429;-79
2022/01/06 03:46:34;;;;;;;4.00;1.53;;;;;;;;;;5072049;28;20241;-79
2022/01/06 03:49:00;;;;;;;2.53;1.70;;;;;;;;;;5064606;28;20202;-78
2022/01/06 03:51:26;;;;;;;5.60;1.20;;;;;;;;;;5056640;28;20920;-78
2022/01/06 03:53:51;;;;;;;8.90;1.73;;;5.30;1.00;;;;;;5060758;28;20469;-78
2022/01/06 03:56:18;;;;;;;2.83;1.07;;;;;;;;;;5061333;28;20421;-78
2022/01/06 03:58:44;;;;;;;2.30;1.10;;;5.40;1.00;;;;;;5054742;28;20194;-78
2022/01/06 04:01:11;;;;;;;2.90;1.77;;;;;;;;;;5067526;28;20429;-78
2022/01/06 04:03:37;;;;;;;9.20;1.73;;;;;;;;;;5054357;28;20426;-78
2022/01/06 04:06:03;;;;;;;3.73;1.60;;;;;;;;;;5058001;28;20414;-78
2022/01/06 04:08:29;;;;;;;2.10;1.02;;;;;;;;;;5062748;28;20812;-77
2022/01/06 04:10:55;;;;;;;10.13;2.10;;;;;;;;;;5069674;28;20175;-77
2022/01/06 04:13:21;;;;;;;1.80;1.53;;;;;;;;;;5055515;28;20434;-77
2022/01/06 04:15:50;;;;;;;9.17;1.67;;;5.50;1.00;;;;;;5071032;28;20417;-77
2022/01/06 04:18:16;;;;;;;1.20;1.10;;;;;;;;;;5056148;28;20840;-78
2022/01/06 04:20:42;;;;;;;19.80;1.50;;;;;;;;;;5069094;28;20417;-78
2022/01/06 04:23:08;;;;;;;5.70;1.90;;;;;;;;;;5056027;28;20437;-78
2022/01/06 04:25:34;;;;;;;5.53;1.73;;;;;;;;;;5070747;28;20509;-78
2022/01/06 04:28:00;;;;;;;2.83;1.40;;;5.60;1.00;;;;;;5072594;28;20920;-78
2022/01/06 04:30:26;;;;;;;13.90;2.10;;;5.60;1.00;;;;;;5071517;28;20413;-78
2022/01/06 04:32:52;;;;;;;4.87;1.00;;;;;;;;;;5072426;28;20671;-78
2022/01/06 04:35:18;;;;;;;2.23;1.47;;;;;;;;;;5062763;28;20213;-80
2022/01/06 04:37:44;;;;;;;2.80;1.27;;;5.50;1.00;;;;;;5068490;28;20417;-80
2022/01/06 04:40:10;;;;;;;2.70;1.40;;;5.50;1.00;;;;;;5068387;28;21020;-79
2022/01/06 04:42:36;;;;;;;3.60;1.10;;;5.40;1.00;;;;;;5055772;28;20426;-79
2022/01/06 04:45:03;;;;;;;2.40;1.20;;;5.20;1.00;;;;;;5073317;28;20522;-79
2022/01/06 04:47:29;;;;;;;2.20;1.00;;;;;;;;;;5064843;28;20191;-79
2022/01/06 04:49:54;;;;;;;1.57;1.20;;;5.00;1.00;;;;;;5062967;28;20995;-79
2022/01/06 04:52:20;;;;;;;2.53;2.17;;;4.80;1.00;;;;;;5065836;28;20434;-80
2022/01/06 04:54:46;;;;;;;18.93;1.17;;;4.80;1.00;;;;;;5070710;28;20203;-79
2022/01/06 04:57:12;;;;;;;2.40;1.63;;;;;;;;;;5060557;28;20661;-80
2022/01/06 04:59:38;;;;;;;1.77;1.20;;;;;;;;;;5075542;28;20174;-79
2022/01/06 05:02:04;;;;;;;1.92;1.52;;;4.30;1.00;;;;;;5066286;28;20745;-79
2022/01/06 05:04:30;;;;;;;3.65;2.17;;;4.30;1.00;;;;;;5063653;28;20278;-79
2022/01/06 05:06:56;;;;;;;9.70;1.20;;;;;;;;;;5060423;28;20215;-79
2022/01/06 05:09:22;;;;;;;2.83;1.47;;;;;;;;;;5069855;28;20205;-78
2022/01/06 05:11:48;;;;;;;5.68;1.50;;;;;;;;;;5075433;28;20427;-78
2022/01/06 05:14:13;;;;;;;11.63;1.33;;;3.90;1.00;;;;;;5063569;28;20285;-78
2022/01/06 05:16:39;;;;;;;0.93;0.90;;;;;;;;;;5064107;28;20838;-78
2022/01/06 05:19:05;;;;;;;4.20;1.40;;;3.80;1.00;;;;;;5073771;28;20182;-79
2022/01/06 05:21:32;;;;;;;1.67;1.57;;;3.70;1.00;;;;;;5063277;28;20259;-79
2022/01/06 05:24:10;;;;;;;2.13;1.27;;;3.70;1.00;;;;;;5067617;28;20187;-79
2022/01/06 05:26:38;;;;;;;3.40;1.35;;;3.60;1.00;;;;;;5071257;28;20275;-79
2022/01/06 05:29:04;;;;;;;3.03;1.67;;;;;;;;;;5075107;28;20320;-80
2022/01/06 05:31:30;;;;;;;3.63;1.63;;;;;;;;;;5085109;28;20285;-80
2022/01/06 05:33:55;;;;;;;4.10;1.63;;;3.40;1.00;;;;;;5063594;28;20476;-80
2022/01/06 05:36:21;;;;;;;4.40;1.60;;;3.40;1.00;;;;;;5056719;28;20461;-79
2022/01/06 05:38:47;;;;;;;1.80;1.43;;;;;;;;;;5065262;28;20182;-79
2022/01/06 05:41:13;;;;;;;2.33;1.20;;;;;;;;;;5061856;28;20218;-79
2022/01/06 05:43:39;;;;;;;6.63;1.47;;;;;;;;;;5071128;28;20430;-79
2022/01/06 05:46:05;;;;;;;4.38;2.00;;;3.00;1.00;;;;;;5047370;28;20426;-79
2022/01/06 05:48:30;;;;;;;4.47;1.70;;;3.00;1.00;;;;;;5056195;28;20194;-79
2022/01/06 05:50:56;;;;;;;8.33;2.10;;;2.90;1.00;;;;;;5069352;28;20186;-78
2022/01/06 05:53:22;;;;;;;1.80;1.43;;;2.90;1.00;;;;;;5062271;28;20278;-79
2022/01/06 05:55:48;;;;;;;3.20;1.43;;;;;;;;;;5058444;28;20597;-78
2022/01/06 05:58:14;;;;;;;2.15;1.48;;;;;;;;;;5061418;28;20257;-78
2022/01/06 06:00:40;;;;;;;5.07;2.40;;;;;;;;;;5056606;28;20260;-79
2022/01/06 06:03:06;;;;;;;5.90;1.53;;;;;;;;;;5054621;28;20437;-79
2022/01/06 06:05:32;;;;;;;3.33;2.10;;;;;;;;;;5059073;28;20993;-79
2022/01/06 06:07:58;;;;;;;3.25;1.42;;;;;;;;;;5061871;28;20843;-80
2022/01/06 06:10:27;;;;;;;2.80;1.60;;;2.50;1.00;;;;;;5060149;28;20210;-80
2022/01/06 06:12:53;;;;;;;4.93;1.15;;;2.50;1.00;;;;;;5057243;28;20533;-81
2022/01/06 06:15:20;;;;;;;3.27;1.80;;;2.50;1.00;;;;;;5050983;28;20285;-81
2022/01/06 06:17:46;;;;;;;5.40;1.80;;;;;;;;;;5056374;28;20426;-80
2022/01/06 06:20:12;;;;;;;7.90;2.38;;;2.40;1.00;;;;;;5056853;28;20179;-78
2022/01/06 06:22:38;;;;;;;3.13;2.03;;;;;;;;;;5060564;28;20677;-77
2022/01/06 06:25:04;;;;;;;3.40;1.37;;;2.20;1.00;;;;;;5065812;28;20183;-78
2022/01/06 06:27:30;;;;;;;4.72;2.10;;;2.20;1.00;;;;;;5055375;28;20445;-78
2022/01/06 06:29:56;;;;;;;17.67;1.60;;;;;;;;;;5052679;28;20175;-77
2022/01/06 06:32:22;;;;;;;5.70;1.70;;;2.10;1.00;;;;;;5053803;28;20340;-78
2022/01/06 06:34:48;;;;;;;3.70;1.90;;;;;;;;;;5052883;28;20283;-78
2022/01/06 06:37:14;;;;;;;9.97;1.80;;;;;;;;;;5055748;28;20179;-80
2022/01/06 06:39:39;;;;;;;2.00;1.77;;;2.00;1.00;;;;;;5055960;28;20433;-80
2022/01/06 06:42:05;;;;;;;4.97;1.33;;;;;;;;;;5069938;28;20178;-79
2022/01/06 06:44:31;;;;;;;4.43;1.50;;;;;;;;;;5070857;28;20218;-80
2022/01/06 06:46:57;;;;;;;6.30;2.00;;;;;;;;;;5063248;28;20211;-80
2022/01/06 06:49:28;;;;;;;9.43;2.40;;;3.50;1.00;;;;;;5068406;28;20426;-80
2022/01/06 06:51:54;;;;;;;8.90;2.13;;;2.10;1.00;;;;;;5060154;28;20430;-80
2022/01/06 06:54:20;;;;;;;2.20;1.53;;;2.00;1.00;;;;;;5067830;28;20554;-80
2022/01/06 06:56:46;;;;;;;5.23;2.20;;;;;;;;;;5053691;28;20184;-80
2022/01/06 06:59:12;;;;;;;5.07;2.20;;;;;;;;;;5047814;28;20900;-80
2022/01/06 07:01:38;;;;;;;5.30;1.70;;;;;;;;;;5047927;28;20176;-80
2022/01/06 07:04:04;;;;;;;3.88;1.50;;;2.00;1.00;;;;;;5067503;28;20469;-81
2022/01/06 07:06:29;;;;;;;6.97;2.40;;;2.00;1.00;;;;;;5055977;28;20626;-78
2022/01/06 07:08:55;;;;;;;6.07;1.97;;;;;;;;;;5060503;28;20191;-77
2022/01/06 07:11:22;;;;;;;20.30;2.07;;;1.90;1.00;;;;;;5060366;28;20210;-77
2022/01/06 07:13:48;;;;;;;6.18;2.97;;;;;;;;;;5060172;28;20465;-77
2022/01/06 07:16:14;;;;;;;7.80;2.10;;;1.90;1.00;;;;;;5059258;28;20186;-77
2022/01/06 07:18:40;;;;;;;5.43;2.40;;;1.90;1.00;;;;;;5049739;28;20266;-78
2022/01/06 07:21:05;;;;;;;3.37;2.10;;;1.80;1.00;;;;;;5060821;28;20182;-77
2022/01/06 07:23:31;;;;;;;9.00;1.63;;;;;;;;;;5073793;28;20191;-77
2022/01/06 07:25:57;;;;;;;11.35;2.20;;;;;;;;;;5052897;28;20711;-77
2022/01/06 07:28:23;;;;;;;6.40;1.83;;;;;;;;;;5058873;28;20653;-77
2022/01/06 07:30:49;;;;;;;2.27;1.80;;;;;;;;;;5051921;28;20184;-78
2022/01/06 07:33:15;;;;;;;5.30;1.93;;;2.00;1.00;;;;;;5060145;28;20599;-77
2022/01/06 07:35:44;;;;;;;3.93;2.00;;;2.00;1.00;;;;;;5052263;28;20453;-77
2022/01/06 07:38:10;;;;;;;4.93;2.47;;;2.20;1.00;;;;;;5054804;28;20183;-77
2022/01/06 07:40:36;;;;;;;6.63;2.60;;;;;;;;;;5051849;28;20627;-77
2022/01/06 07:43:02;;;;;;;6.28;1.92;;;2.30;1.00;;;;;;5079489;28;20260;-78
2022/01/06 07:45:29;;;;;;;8.45;2.78;;;2.30;1.00;;;;;;5077362;28;20186;-78
2022/01/06 07:47:58;;;;;;;2.67;1.77;;;2.30;1.00;;;;;;5033569;28;20195;-77
2022/01/06 07:50:27;;;;;;;5.40;2.33;;;2.30;1.00;;;;;;5052300;28;20183;-78
2022/01/06 07:52:53;;;;;;;3.33;1.90;;;2.30;1.00;;;;;;5055266;28;20183;-78
2022/01/06 07:55:19;;;;;;;8.77;2.15;;;2.30;1.00;;;;;;5054437;28;20222;-77
2022/01/06 07:57:45;;;;;;;6.60;2.70;;;;;;;;;;5058218;28;20646;-76
2022/01/06 08:00:11;;;;;;;2.90;2.10;;;2.40;1.00;;;;;;5061582;28;20186;-77
2022/01/06 08:02:37;;;;;;;16.13;1.95;;;2.40;1.00;;;;;;5067217;28;20897;-78
2022/01/06 08:05:03;;;;;;;2.40;2.20;;;2.50;1.00;;;;;;5059422;28;20183;-78
2022/01/06 08:07:29;;;;;;;2.95;2.20;;;2.50;1.00;;;;;;5056960;28;20660;-80
2022/01/06 08:09:55;;;;;;;8.23;2.30;;;2.60;1.00;;;;;;5063442;28;20195;-78
2022/01/06 08:12:21;;;;;;;9.50;2.70;;;;;;;;;;5062880;28;20187;-80
2022/01/06 08:14:46;;;;;;;11.80;2.70;;;;;;;;;;5065738;28;20657;-81
2022/01/06 08:17:13;;;;;;;7.17;2.33;;;;;;;;;;5064144;28;20532;-78
2022/01/06 08:19:39;;;;;;;4.75;3.08;;;;;;;;;;5084202;28;20433;-79
2022/01/06 08:22:05;;;;;;;6.30;2.57;;;;;;;;;;5057573;28;20638;-78
2022/01/06 08:24:30;;;;;;;5.10;2.92;;;3.10;1.00;;;;;;5069854;28;20755;-80
2022/01/06 08:26:56;;;;;;;6.73;3.10;;;;;;;;;;5052994;28;20191;-76
2022/01/06 08:29:22;;;;;;;12.70;3.13;;;;;;;;;;5054941;28;20188;-75
2022/01/06 08:31:48;;;;;;;8.73;2.45;;;3.10;1.00;;;;;;5056618;28;20414;-75
2022/01/06 08:34:13;;;;;;;6.83;2.33;;;3.20;1.00;;;;;;5057641;28;20218;-80
2022/01/06 08:36:39;;;;;;;16.23;3.23;;;3.20;1.00;;;;;;5055902;28;20168;-76
2022/01/06 08:39:04;;;;;;;5.00;2.77;;;3.30;1.00;;;;;;5069207;28;20648;-76
2022/01/06 08:41:30;;;;;;;7.57;2.90;;;;;;;;;;5067808;28;20163;-76
2022/01/06 08:43:56;;;;;;;4.77;2.83;;;3.30;1.00;;;;;;5065560;28;20179;-76
2022/01/06 08:46:22;;;;;;;8.50;3.53;;;3.30;1.00;;;;;;5065365;28;20519;-76
2022/01/06 08:48:47;;;;;;;7.03;3.10;;;3.40;1.00;;;;;;5060425;28;20215;-76
2022/01/06 08:51:13;;;;;;;8.90;3.27;;;3.50;1.00;;;;;;5075498;28;20179;-76
2022/01/06 08:53:39;;;;;;;12.20;3.40;;;;;;;;;;5054414;28;20191;-77
2022/01/06 08:56:05;;;;;;;3.50;2.53;;;;;;;;;;5055580;28;20176;-77
2022/01/06 08:58:31;;;;;;;13.60;3.60;;;;;;;;;;5056013;28;20491;-77
2022/01/06 09:00:57;;;;;;;7.17;2.63;;;;;;;;;;5055556;28;20271;-77
2022/01/06 09:03:22;;;;;;;4.03;2.60;;;3.80;1.00;;;;;;5056112;28;20486;-77
2022/01/06 09:05:48;;;;;;;7.60;3.03;;;3.80;1.00;;;;;;5056465;28;20496;-78
2022/01/06 09:08:14;;;;;;;7.83;2.53;;;;;;;;;;5068255;28;20546;-79
2022/01/06 09:10:40;;;;;;;5.78;2.70;;;3.90;1.00;;;;;;5055983;28;20187;-79
2022/01/06 09:13:05;;;;;;;4.73;2.37;;;4.00;1.00;;;;;;5066098;28;20265;-78
2022/01/06 09:15:31;;;;;;;2.83;2.10;;;;;;;;;;5073673;28;20199;-78
2022/01/06 09:17:58;;;;;;;19.45;3.15;;;;;;;;;;5074702;28;20175;-78
2022/01/06 09:20:24;;;;;;;9.63;2.50;;;;;;;;;;5065539;28;20171;-78
2022/01/06 09:22:50;;;;;;;14.03;2.50;;;;;;;;;;5075486;28;20496;-78
2022/01/06 09:25:20;;;;;;;4.43;2.35;;;4.40;1.00;;;;;;5062166;28;20410;-78
2022/01/06 09:27:46;;;;;;;7.25;2.78;;;4.40;1.00;;;;;;5054150;28;20176;-78
2022/01/06 09:30:12;;;;;;;10.67;2.10;;;4.50;1.00;;;;;;5055119;28;20206;-77
2022/01/06 09:32:38;;;;;;;16.43;2.40;;;4.70;1.00;;;;;;5071908;28;20544;-78
2022/01/06 09:35:04;;;;;;;9.10;3.03;;;4.70;1.00;;;;;;5070390;28;20688;-78
2022/01/06 09:37:29;;;;;;;1.73;1.58;;;4.70;1.00;;;;;;5055655;28;20160;-79
2022/01/06 09:39:55;;;;;;;9.63;2.33;;;;;;;;;;5054842;28;20183;-79
2022/01/06 09:42:21;;;;;;;13.93;2.93;;;;;;;;;;5075031;28;20284;-79
2022/01/06 09:44:49;;;;;;;5.13;2.70;;;5.00;1.00;;;;;;5074946;28;20437;-79
2022/01/06 09:47:15;;;;;;;5.07;2.30;;;5.10;1.00;;;;;;5061592;28;20439;-79
2022/01/06 09:49:44;;;;;;;4.17;2.60;;;5.80;1.00;;;;;;5069606;28;20436;-79
2022/01/06 09:52:11;;;;;;;2.33;2.10;;;5.20;1.00;;;;;;5047097;28;20462;-79
2022/01/06 09:54:38;;;;;;;7.37;3.07;;;5.20;1.00;;;;;;5063972;28;20466;-79
2022/01/06 09:57:04;;;;;;;3.07;1.90;;;5.30;1.00;;;;;;5059656;28;20413;-79
2022/01/06 09:59:30;;;;;;;6.07;2.67;;;;;;;;;;5063409;28;20440;-79
2022/01/06 10:01:58;;;;;;;6.90;2.70;;;;;;;;;;5090002;28;20425;-79
2022/01/06 10:04:27;;;;;;;13.90;3.43;;;5.50;1.00;;;;;;5069291;28;20776;-79
2022/01/06 10:07:08;;;;;;;11.90;2.57;;;5.50;1.00;;;;;;5067574;28;20433;-79
2022/01/06 10:09:36;;;;;;;3.83;2.70;;;5.50;1.00;;;;;;5061876;28;20433;-79
2022/01/06 10:12:08;;;;;;;6.40;2.50;;;5.50;1.00;;;;;;5060328;28;20474;-79
2022/01/06 10:14:44;;;;;;;7.30;2.87;;;5.50;1.00;;;;;;5064699;28;20457;-79
2022/01/06 10:17:16;;;;;;;7.97;2.40;;;5.60;1.00;;;;;;5054310;28;20840;-79
2022/01/06 10:19:44;;;;;;;3.87;2.03;;;5.60;1.00;;;;;;5063482;28;20504;-79
2022/01/06 10:22:15;;;;;;;8.13;3.00;;;5.60;1.00;;;;;;5070507;28;20421;-78
2022/01/06 10:24:44;;;;;;;15.13;3.13;;;5.70;1.00;;;;;;5074296;28;20408;-78
2022/01/06 10:27:10;;;;;;;3.87;2.40;;;;;;;;;;5063049;28;20517;-78
2022/01/06 10:29:47;;;;;;;11.67;3.23;;;5.60;1.00;;;;;;5054046;28;20428;-78
2022/01/06 10:32:17;;;;;;;5.57;2.83;;;5.50;1.00;;;;;;5072157;28;20482;-78
2022/01/06 10:34:54;;;;;;;8.80;2.13;;;5.60;1.00;;;;;;5073714;28;20522;-78
2022/01/06 10:37:38;;;;;;;7.30;2.50;;;5.60;1.00;;;;;;5065890;28;20778;-78
2022/01/06 10:40:05;;;;;;;10.93;2.40;;;5.60;1.00;;;;;;5066197;28;20919;-79
2022/01/06 10:42:33;;;;;;;2.35;2.15;;;5.60;1.00;;;;;;5065113;28;20457;-79
2022/01/06 10:45:14;;;;;;;4.67;2.10;;;5.60;1.00;;;;;;5064018;28;20191;-79
2022/01/06 10:47:45;;;;;;;8.17;2.23;;;5.60;1.00;;;;;;5072214;28;20427;-79
2022/01/06 10:50:20;;;;;;;5.30;2.63;;;5.70;1.00;;;;;;5055745;28;20421;-78
2022/01/06 10:53:01;;;;;;;2.67;2.20;;;5.60;1.00;;;;;;5064868;28;20422;-79
2022/01/06 10:55:32;;;;;;;3.07;1.80;;;5.80;1.00;;;;;;5069528;28;20543;-78
2022/01/06 10:58:06;;;;;;;6.47;3.13;;;5.90;1.00;;;;;;5063179;28;20429;-79
2022/01/06 11:00:35;;;;;;;8.07;2.67;;;5.90;1.00;;;;;;5058123;28;20421;-79
2022/01/06 11:03:20;;;;;;;3.50;2.10;;;6.00;1.00;;;;;;5073151;28;20424;-79
2022/01/06 11:05:52;;;;;;;10.40;2.57;;;6.10;1.00;;;;;;5069422;28;20535;-79
2022/01/06 11:08:21;;;;;;;2.93;2.10;;;6.10;1.00;;;;;;5068488;28;20427;-78
2022/01/06 11:11:03;;;;;;;4.17;2.60;;;6.20;1.00;;;;;;5062503;28;20431;-79
2022/01/06 11:13:33;;;;;;;7.67;2.73;;;6.10;1.00;;;;;;5049486;28;20434;-79
2022/01/06 11:15:59;;;;;;;3.00;2.40;;;6.10;1.00;;;;;;5043974;28;20430;-79
2022/01/06 11:18:25;;;;;;;13.67;3.30;;;6.10;1.00;;;;;;5053457;28;20465;-79
2022/01/06 11:20:52;;;;;;;7.70;3.33;;;;;;;;;;5051498;28;20545;-79
2022/01/06 11:23:22;;;;;;;4.03;2.03;;;5.90;1.00;;;;;;5062658;28;20416;-80
2022/01/06 11:25:48;;;;;;;3.80;2.53;;;;;;;;;;5053355;28;20424;-79
2022/01/06 11:28:15;;;;;;;7.43;2.70;;;5.80;1.00;;;;;;5053250;28;20425;-79
2022/01/06 11:30:47;;;;;;;7.33;2.97;;;6.00;1.00;;;;;;5052731;28;20501;-80
2022/01/06 11:33:13;;;;;;;6.30;3.17;;;6.00;1.00;;;;;;5053620;28;20515;-78
2022/01/06 11:35:54;;;;;;;8.20;3.20;;;6.10;1.00;;;;;;5060749;28;20594;-79
2022/01/06 11:38:26;;;;;;;3.17;2.70;;;6.30;1.00;;;;;;5057286;28;20449;-78
2022/01/06 11:41:05;;;;;;;9.87;2.93;;;6.30;1.00;;;;;;5055594;28;20561;-79
2022/01/06 11:43:38;;;;;;;4.87;2.50;;;6.30;1.00;;;;;;5059808;28;20447;-79
2022/01/06 11:46:04;;;;;;;10.63;2.83;;;6.20;1.00;;;;;;5065198;28;20436;-79
2022/01/06 11:48:30;;;;;;;4.70;2.77;;;6.30;1.00;;;;;;5062975;28;20410;-79
2022/01/06 11:50:56;;;;;;;12.53;3.13;;;6.20;1.00;;;;;;5054798;28;20483;-79
2022/01/06 11:53:33;;;;;;;7.60;2.53;;;6.40;1.00;;;;;;5051701;28;20540;-78
2022/01/06 11:56:11;;;;;;;8.10;2.50;;;6.60;1.00;;;;;;5051339;28;20175;-78
2022/01/06 11:58:37;;;;;;;4.57;2.00;;;6.80;1.00;;;;;;5048180;28;20461;-78
2022/01/06 12:01:12;;;;;;;7.33;2.60;;;6.80;1.00;;;;;;5058886;28;20950;-79
2022/01/06 12:03:44;;;;;;;4.90;2.20;;;7.00;1.00;;;;;;5059023;28;20445;-78
2022/01/06 12:06:39;;;;;;;2.87;2.07;;;7.00;1.00;;;;;;5052199;28;20436;-77
2022/01/06 12:09:18;;;;;;;2.70;2.27;;;7.20;1.00;;;;;;5049545;28;20428;-79
2022/01/06 12:11:44;;;;;;;10.73;2.53;;;;;;;;;;5053023;28;20436;-78
2022/01/06 12:14:11;;;;;;;3.53;2.30;;;7.20;1.00;;;;;;5051093;28;20461;-78
2022/01/06 12:16:38;;;;;;;7.73;2.50;;;7.10;1.00;;;;;;5055404;28;20516;-78
2022/01/06 12:19:17;;;;;;;6.83;2.30;;;7.00;1.00;;;;;;5060128;28;20417;-77
2022/01/06 12:21:43;;;;;;;5.70;1.93;;;7.10;1.00;;;;;;5068737;28;20474;-78
2022/01/06 12:24:11;;;;;;;5.00;2.60;;;7.00;1.00;;;;;;5072921;28;20409;-79
2022/01/06 12:26:39;;;;;;;5.40;2.33;;;7.00;1.00;;;;;;5066372;28;20428;-79
2022/01/06 12:29:06;;;;;;;10.70;2.77;;;;;;;;;;5065766;28;20426;-79
2022/01/06 12:31:33;;;;;;;14.00;2.83;;;;;;;;;;5069683;28;20474;-79
2022/01/06 12:34:00;;;;;;;16.53;2.17;;;6.90;1.00;;;;;;5087667;28;20578;-79
2022/01/06 12:36:29;;;;;;;9.13;2.20;;;6.90;1.00;;;;;;5067728;28;20505;-79
2022/01/06 12:38:56;;;;;;;2.93;1.47;;;;;;;;;;5064299;28;20898;-78
2022/01/06 12:41:32;;;;;;;5.70;2.67;;;6.90;1.00;;;;;;5065669;28;20810;-78
2022/01/06 12:44:03;;;;;;;2.00;1.80;;;8.90;1.00;;;;;;5058197;28;20441;-78
2022/01/06 12:46:38;;;;;;;7.53;1.70;;;7.00;1.00;;;;;;5040640;28;20509;-77
2022/01/06 12:49:22;;;;;;;5.57;2.40;;;7.00;1.00;;;;;;5052665;28;20908;-77
2022/01/06 12:51:49;;;;;;;3.60;1.47;;;7.00;1.00;;;;;;5063585;28;20763;-78
2022/01/06 12:54:18;;;;;;;9.10;2.13;;;7.00;1.00;;;;;;5058910;28;20456;-79
2022/01/06 12:57:06;;;;;;;8.23;2.57;;;7.10;1.00;;;;;;5067450;28;20417;-81
2022/01/06 12:59:49;;;;;;;6.73;2.80;;;7.10;1.00;;;;;;5049781;28;20850;-78
2022/01/06 13:02:15;;;;;;;5.27;2.67;;;7.10;1.00;;;;;;5055997;28;20464;-79
2022/01/06 13:04:48;;;;;;;2.73;2.10;;;7.10;1.00;;;;;;5065626;28;20463;-78
2022/01/06 13:07:17;;;;;;;3.70;1.77;;;7.00;1.00;;;;;;5075857;28;20414;-79
2022/01/06 13:10:00;;;;;;;7.73;2.80;;;6.90;1.00;;;;;;5073709;28;20390;-78
2022/01/06 13:12:26;;;;;;;3.67;1.90;;;7.00;1.00;;;;;;5053361;28;20497;-79
2022/01/06 13:14:57;;;;;;;13.40;2.23;;;6.90;1.00;;;;;;5057591;28;20454;-78
2022/01/06 13:17:31;;;;;;;16.57;2.57;;;7.00;1.00;;;;;;5066252;28;20421;-79
2022/01/06 13:20:05;;;;;;;10.03;2.73;;;7.00;1.00;;;;;;5058732;28;20516;-79
2022/01/06 13:25:15;;;;;;;14.70;2.00;;;6.90;1.00;;;;;;5063034;28;20426;-77
2022/01/06 13:27:51;;;;;;;5.87;2.37;;;6.90;1.00;;;;;;5053219;28;20426;-76
2022/01/06 13:30:16;;;;;;;6.27;2.57;;;6.90;1.00;;;;;;5069672;28;20421;-76
2022/01/06 13:32:55;;;;;;;3.03;1.93;;;7.00;1.00;;;;;;5073123;28;20437;-78
2022/01/06 13:35:20;;;;;;;4.37;1.90;;;7.20;1.00;;;;;;5060997;28;20222;-77
2022/01/06 13:37:46;;;;;;;4.57;2.30;;;;;;;;;;5074961;28;20409;-77
2022/01/06 13:40:13;;;;;;;4.10;1.90;;;7.30;1.00;;;;;;5067594;28;20262;-78
2022/01/06 13:42:41;;;;;;;8.10;1.93;;;7.40;1.00;;;;;;5074968;28;20920;-78
2022/01/06 13:48:08;;;;;;;6.23;2.00;;;7.50;1.00;;;;;;5066257;28;20420;-77
2022/01/06 13:53:42;;;;;;;4.67;1.63;;;7.60;1.00;;;;;;5074045;28;20462;-76
2022/01/06 13:56:19;;;;;;;4.00;2.40;;;7.60;1.00;;;;;;5059964;28;20777;-77